createdAt,value
2018-06-04T00:00:14.975Z,0
2018-06-04T00:01:16.348Z,0
2018-06-04T00:02:17.708Z,0
2018-06-04T00:03:19.058Z,0
2018-06-04T00:04:20.433Z,0
2018-06-04T00:05:21.792Z,0
2018-06-04T00:06:23.164Z,0
2018-06-04T00:07:24.527Z,0
2018-06-04T00:08:25.882Z,0
2018-06-04T00:09:27.243Z,0
2018-06-04T00:10:28.602Z,0
2018-06-04T00:11:29.964Z,0
2018-06-04T00:12:32.086Z,0
2018-06-04T00:13:33.456Z,0
2018-06-04T00:14:34.823Z,0
2018-06-04T00:15:36.190Z,0
2018-06-04T00:16:37.545Z,0
2018-06-04T00:17:38.913Z,0
2018-06-04T00:18:40.282Z,0
2018-06-04T00:19:41.660Z,0
2018-06-04T00:20:43.016Z,0
2018-06-04T00:21:44.383Z,0
2018-06-04T00:22:45.739Z,0
2018-06-04T00:23:47.099Z,0
2018-06-04T00:24:48.466Z,0
2018-06-04T00:25:49.834Z,0
2018-06-04T00:26:51.196Z,0
2018-06-04T00:27:52.559Z,0
2018-06-04T00:28:53.924Z,0
2018-06-04T00:29:55.288Z,0
2018-06-04T00:30:56.653Z,0
2018-06-04T00:31:58.012Z,0
2018-06-04T00:32:59.378Z,0
2018-06-04T00:34:00.739Z,0
2018-06-04T00:35:02.163Z,0
2018-06-04T00:36:03.525Z,0
2018-06-04T00:37:04.886Z,0
2018-06-04T00:38:06.251Z,0
2018-06-04T00:39:07.610Z,0
2018-06-04T00:40:08.974Z,0
2018-06-04T00:41:10.338Z,0
2018-06-04T00:42:11.702Z,0
2018-06-04T00:43:13.069Z,0
2018-06-04T00:44:14.426Z,0
2018-06-04T00:45:15.793Z,0
2018-06-04T00:46:17.153Z,0
2018-06-04T00:47:18.511Z,0
2018-06-04T00:48:19.876Z,0
2018-06-04T00:49:21.236Z,0
2018-06-04T00:50:22.624Z,0
2018-06-04T00:51:23.979Z,0
2018-06-04T00:52:25.339Z,0
2018-06-04T00:53:26.707Z,0
2018-06-04T00:54:28.084Z,0
2018-06-04T00:55:29.450Z,0
2018-06-04T00:56:30.814Z,0
2018-06-04T00:57:32.179Z,0
2018-06-04T00:58:33.555Z,0
2018-06-04T00:59:34.923Z,0
2018-06-04T01:00:36.290Z,0
2018-06-04T01:01:37.652Z,0
2018-06-04T01:02:39.004Z,0
2018-06-04T01:03:40.376Z,0
2018-06-04T01:04:41.738Z,0
2018-06-04T01:05:43.105Z,0
2018-06-04T01:06:44.669Z,0
2018-06-04T01:07:46.035Z,0
2018-06-04T01:08:47.400Z,0
2018-06-04T01:09:48.765Z,0
2018-06-04T01:10:50.131Z,0
2018-06-04T01:11:51.493Z,0
2018-06-04T01:12:52.858Z,0
2018-06-04T01:13:54.213Z,0
2018-06-04T01:14:55.580Z,0
2018-06-04T01:15:56.938Z,0
2018-06-04T01:16:58.300Z,0
2018-06-04T01:17:59.665Z,0
2018-06-04T01:19:01.032Z,0
2018-06-04T01:20:02.417Z,0
2018-06-04T01:21:03.783Z,0
2018-06-04T01:22:05.142Z,0
2018-06-04T01:23:06.508Z,0
2018-06-04T01:24:07.867Z,0
2018-06-04T01:25:09.235Z,0
2018-06-04T01:26:10.604Z,0
2018-06-04T01:27:11.966Z,0
2018-06-04T01:28:13.357Z,0
2018-06-04T01:29:14.718Z,0
2018-06-04T01:30:16.093Z,0
2018-06-04T01:31:17.450Z,0
2018-06-04T01:32:18.818Z,0
2018-06-04T01:33:20.174Z,0
2018-06-04T01:34:21.537Z,0
2018-06-04T01:35:22.896Z,0
2018-06-04T01:36:24.263Z,0
2018-06-04T01:37:25.627Z,0
2018-06-04T01:38:26.983Z,0
2018-06-04T01:39:28.345Z,0
2018-06-04T01:40:29.699Z,0
2018-06-04T01:41:31.062Z,0
2018-06-04T01:42:32.457Z,0
2018-06-04T01:43:33.820Z,0
2018-06-04T01:44:35.178Z,0
2018-06-04T01:45:36.543Z,0
2018-06-04T01:46:37.904Z,0
2018-06-04T01:47:39.267Z,0
2018-06-04T01:48:40.627Z,0
2018-06-04T01:49:41.988Z,0
2018-06-04T01:50:43.351Z,0
2018-06-04T01:51:44.709Z,0
2018-06-04T01:52:46.070Z,0
2018-06-04T01:53:47.431Z,0
2018-06-04T01:54:48.791Z,0
2018-06-04T01:55:50.148Z,0
2018-06-04T01:56:51.509Z,0
2018-06-04T01:57:52.868Z,0
2018-06-04T01:58:54.234Z,0
2018-06-04T01:59:55.591Z,0
2018-06-04T02:00:56.960Z,0
2018-06-04T02:01:58.318Z,0
2018-06-04T02:03:01.441Z,0
2018-06-04T02:04:02.804Z,0
2018-06-04T02:05:04.167Z,0
2018-06-04T02:06:05.521Z,0
2018-06-04T02:07:06.881Z,0
2018-06-04T02:08:08.239Z,0
2018-06-04T02:09:09.597Z,0
2018-06-04T02:10:10.951Z,0
2018-06-04T02:11:12.318Z,0
2018-06-04T02:12:13.683Z,0
2018-06-04T02:13:15.038Z,0
2018-06-04T02:14:16.397Z,0
2018-06-04T02:15:17.759Z,0
2018-06-04T02:16:19.120Z,0
2018-06-04T02:17:20.481Z,0
2018-06-04T02:18:21.837Z,0
2018-06-04T02:19:23.194Z,0
2018-06-04T02:20:24.560Z,0
2018-06-04T02:21:25.927Z,0
2018-06-04T02:22:27.285Z,0
2018-06-04T02:23:28.642Z,0
2018-06-04T02:24:29.999Z,0
2018-06-04T02:25:31.361Z,0
2018-06-04T02:26:32.738Z,0
2018-06-04T02:27:34.094Z,0
2018-06-04T02:28:35.457Z,0
2018-06-04T02:29:36.818Z,0
2018-06-04T02:30:38.180Z,0
2018-06-04T02:31:39.535Z,0
2018-06-04T02:32:40.895Z,0
2018-06-04T02:33:42.256Z,0
2018-06-04T02:34:43.611Z,0
2018-06-04T02:35:44.976Z,0
2018-06-04T02:36:46.338Z,0
2018-06-04T02:37:47.701Z,4
2018-06-04T02:38:49.060Z,4
2018-06-04T02:39:50.418Z,4
2018-06-04T02:40:51.786Z,0
2018-06-04T02:41:53.141Z,4
2018-06-04T02:42:54.500Z,4
2018-06-04T02:43:55.868Z,4
2018-06-04T02:44:57.221Z,4
2018-06-04T02:45:58.583Z,8
2018-06-04T02:46:59.943Z,4
2018-06-04T02:48:01.315Z,8
2018-06-04T02:49:02.676Z,8
2018-06-04T02:50:04.116Z,8
2018-06-04T02:51:05.403Z,8
2018-06-04T02:52:06.759Z,12
2018-06-04T02:53:08.120Z,12
2018-06-04T02:54:09.473Z,16
2018-06-04T02:55:10.834Z,20
2018-06-04T02:56:12.194Z,24
2018-06-04T02:57:13.555Z,24
2018-06-04T02:58:14.906Z,32
2018-06-04T02:59:16.273Z,36
2018-06-04T03:00:17.633Z,40
2018-06-04T03:01:18.990Z,44
2018-06-04T03:02:20.345Z,52
2018-06-04T03:03:21.703Z,60
2018-06-04T03:04:23.189Z,68
2018-06-04T03:05:24.546Z,76
2018-06-04T03:06:25.904Z,88
2018-06-04T03:07:27.262Z,100
2018-06-04T03:08:28.624Z,112
2018-06-04T03:09:29.987Z,124
2018-06-04T03:10:31.344Z,140
2018-06-04T03:11:32.664Z,156
2018-06-04T03:12:34.031Z,172
2018-06-04T03:13:35.387Z,192
2018-06-04T03:14:36.747Z,212
2018-06-04T03:15:38.107Z,236
2018-06-04T03:16:39.471Z,260
2018-06-04T03:17:40.837Z,288
2018-06-04T03:18:42.203Z,316
2018-06-04T03:19:43.567Z,344
2018-06-04T03:20:44.929Z,376
2018-06-04T03:21:46.285Z,408
2018-06-04T03:22:47.645Z,436
2018-06-04T03:23:49.009Z,468
2018-06-04T03:24:50.368Z,508
2018-06-04T03:25:51.750Z,544
2018-06-04T03:26:53.109Z,584
2018-06-04T03:27:54.468Z,624
2018-06-04T03:28:55.828Z,668
2018-06-04T03:29:57.198Z,712
2018-06-04T03:30:58.554Z,760
2018-06-04T03:31:59.914Z,812
2018-06-04T03:33:01.297Z,868
2018-06-04T03:34:02.668Z,916
2018-06-04T03:35:04.028Z,972
2018-06-04T03:36:05.392Z,1032
2018-06-04T03:37:06.750Z,1092
2018-06-04T03:38:08.120Z,1152
2018-06-04T03:39:09.479Z,1212
2018-06-04T03:40:10.841Z,1272
2018-06-04T03:41:12.208Z,1332
2018-06-04T03:42:13.579Z,1392
2018-06-04T03:43:14.937Z,1452
2018-06-04T03:44:16.301Z,1516
2018-06-04T03:45:17.663Z,1584
2018-06-04T03:46:19.029Z,1652
2018-06-04T03:47:20.394Z,1724
2018-06-04T03:48:21.757Z,1792
2018-06-04T03:49:23.125Z,1868
2018-06-04T03:50:24.476Z,1940
2018-06-04T03:51:25.845Z,2016
2018-06-04T03:52:27.208Z,2088
2018-06-04T03:53:28.569Z,2164
2018-06-04T03:54:29.933Z,2236
2018-06-04T03:55:31.296Z,2308
2018-06-04T03:56:32.659Z,2372
2018-06-04T03:57:34.028Z,2432
2018-06-04T03:58:35.396Z,2484
2018-06-04T03:59:36.758Z,2528
2018-06-04T04:00:38.122Z,2568
2018-06-04T04:01:39.485Z,2620
2018-06-04T04:02:40.854Z,2684
2018-06-04T04:03:42.224Z,2768
2018-06-04T04:04:43.590Z,2864
2018-06-04T04:05:44.951Z,2960
2018-06-04T04:06:46.311Z,3048
2018-06-04T04:07:47.671Z,3128
2018-06-04T04:08:49.043Z,3212
2018-06-04T04:09:50.408Z,3300
2018-06-04T04:10:51.768Z,3396
2018-06-04T04:11:53.133Z,3488
2018-06-04T04:12:54.498Z,3588
2018-06-04T04:13:55.860Z,3688
2018-06-04T04:14:57.226Z,3800
2018-06-04T04:15:58.591Z,3900
2018-06-04T04:16:59.957Z,3984
2018-06-04T04:18:01.314Z,4056
2018-06-04T04:19:02.702Z,4120
2018-06-04T04:20:04.067Z,4156
2018-06-04T04:21:05.436Z,4204
2018-06-04T04:22:06.804Z,4280
2018-06-04T04:23:08.166Z,4356
2018-06-04T04:24:09.538Z,4420
2018-06-04T04:25:10.900Z,4468
2018-06-04T04:26:12.266Z,4516
2018-06-04T04:27:13.623Z,4572
2018-06-04T04:28:14.987Z,4632
2018-06-04T04:29:16.352Z,4696
2018-06-04T04:30:17.710Z,4776
2018-06-04T04:31:19.072Z,4860
2018-06-04T04:32:20.437Z,4952
2018-06-04T04:33:21.806Z,5044
2018-06-04T04:34:23.165Z,5144
2018-06-04T04:35:24.528Z,5236
2018-06-04T04:36:25.896Z,5320
2018-06-04T04:37:27.265Z,5400
2018-06-04T04:38:28.631Z,5472
2018-06-04T04:39:29.995Z,5548
2018-06-04T04:40:31.354Z,5632
2018-06-04T04:41:32.752Z,5724
2018-06-04T04:42:34.117Z,5816
2018-06-04T04:43:35.478Z,5908
2018-06-04T04:44:36.857Z,5984
2018-06-04T04:45:38.222Z,6060
2018-06-04T04:46:39.600Z,6132
2018-06-04T04:47:40.951Z,6200
2018-06-04T04:48:42.313Z,6276
2018-06-04T04:49:43.679Z,6356
2018-06-04T04:50:45.044Z,6428
2018-06-04T04:51:46.415Z,6500
2018-06-04T04:52:47.777Z,6564
2018-06-04T04:53:49.146Z,6624
2018-06-04T04:54:50.529Z,6676
2018-06-04T04:55:51.890Z,6728
2018-06-04T04:56:53.263Z,6780
2018-06-04T04:57:54.630Z,6840
2018-06-04T04:58:56.000Z,6896
2018-06-04T04:59:57.374Z,6956
2018-06-04T05:00:58.741Z,7016
2018-06-04T05:02:00.111Z,7076
2018-06-04T05:03:02.290Z,7140
2018-06-04T05:04:03.663Z,7212
2018-06-04T05:05:05.024Z,7272
2018-06-04T05:06:06.395Z,7340
2018-06-04T05:07:07.759Z,7408
2018-06-04T05:08:09.126Z,7480
2018-06-04T05:09:10.490Z,7548
2018-06-04T05:10:11.868Z,7628
2018-06-04T05:11:13.238Z,7700
2018-06-04T05:12:14.596Z,7776
2018-06-04T05:13:15.968Z,7852
2018-06-04T05:14:17.332Z,7940
2018-06-04T05:15:18.702Z,8016
2018-06-04T05:16:20.065Z,8096
2018-06-04T05:17:21.436Z,8176
2018-06-04T05:18:22.802Z,8256
2018-06-04T05:19:24.166Z,8352
2018-06-04T05:20:25.527Z,8456
2018-06-04T05:21:26.910Z,8564
2018-06-04T05:22:28.287Z,8688
2018-06-04T05:23:29.648Z,8820
2018-06-04T05:24:31.020Z,8968
2018-06-04T05:25:32.420Z,9080
2018-06-04T05:26:33.855Z,9128
2018-06-04T05:27:35.170Z,9160
2018-06-04T05:28:36.543Z,9196
2018-06-04T05:29:37.911Z,9248
2018-06-04T05:30:39.278Z,9312
2018-06-04T05:31:40.658Z,9376
2018-06-04T05:32:42.034Z,9448
2018-06-04T05:33:43.397Z,9536
2018-06-04T05:34:44.770Z,10016
2018-06-04T05:35:46.135Z,10984
2018-06-04T05:36:47.505Z,11724
2018-06-04T05:37:48.882Z,12392
2018-06-04T05:38:50.237Z,12756
2018-06-04T05:39:51.603Z,12908
2018-06-04T05:40:52.967Z,13024
2018-06-04T05:41:54.337Z,13112
2018-06-04T05:42:55.708Z,13204
2018-06-04T05:43:57.082Z,13292
2018-06-04T05:44:58.449Z,13400
2018-06-04T05:45:59.822Z,13524
2018-06-04T05:47:01.195Z,13648
2018-06-04T05:48:02.568Z,13780
2018-06-04T05:49:03.963Z,13912
2018-06-04T05:50:05.349Z,14036
2018-06-04T05:51:06.728Z,14180
2018-06-04T05:52:08.097Z,14324
2018-06-04T05:53:09.475Z,14488
2018-06-04T05:54:10.863Z,14672
2018-06-04T05:55:12.233Z,14900
2018-06-04T05:56:13.616Z,15140
2018-06-04T05:57:14.986Z,15376
2018-06-04T05:58:16.356Z,15620
2018-06-04T05:59:17.723Z,15852
2018-06-04T06:00:19.096Z,16108
2018-06-04T06:01:20.469Z,16468
2018-06-04T06:02:21.858Z,17008
2018-06-04T06:03:23.285Z,17732
2018-06-04T06:04:24.664Z,18824
2018-06-04T06:05:26.035Z,20384
2018-06-04T06:06:27.409Z,21632
2018-06-04T06:07:28.787Z,22496
2018-06-04T06:08:30.160Z,23136
2018-06-04T06:09:31.531Z,23680
2018-06-04T06:10:32.914Z,24608
2018-06-04T06:11:34.292Z,25632
2018-06-04T06:12:35.664Z,26976
2018-06-04T06:13:37.036Z,29760
2018-06-04T06:14:38.410Z,35584
2018-06-04T06:15:39.805Z,42304
2018-06-04T06:16:41.178Z,47840
2018-06-04T06:17:42.548Z,46848
2018-06-04T06:18:43.999Z,41440
2018-06-04T06:19:45.407Z,34016
2018-06-04T06:20:46.753Z,28416
2018-06-04T06:21:48.145Z,28512
2018-06-04T06:22:49.552Z,31552
2018-06-04T06:23:50.934Z,36864
2018-06-04T06:24:52.321Z,38432
2018-06-04T06:25:53.701Z,41120
2018-06-04T06:26:55.164Z,39424
2018-06-04T06:27:56.549Z,37184
2018-06-04T06:28:57.924Z,34144
2018-06-04T06:29:59.300Z,28736
2018-06-04T06:31:00.690Z,27168
2018-06-04T06:32:02.094Z,25344
2018-06-04T06:33:03.465Z,24128
2018-06-04T06:34:05.010Z,25632
2018-06-04T06:35:06.422Z,27776
2018-06-04T06:36:07.796Z,32768
2018-06-04T06:37:09.179Z,30432
2018-06-04T06:38:10.549Z,29856
2018-06-04T06:39:11.938Z,35328
2018-06-04T06:40:13.325Z,44448
2018-06-04T06:41:14.709Z,61728
2018-06-04T06:42:16.089Z,33632
2018-06-04T06:43:17.461Z,56480
2018-06-04T06:44:18.843Z,27392
2018-06-04T06:45:20.219Z,27712
2018-06-04T06:46:21.596Z,31328
2018-06-04T06:47:22.982Z,37280
2018-06-04T06:48:24.371Z,36160
2018-06-04T06:49:25.736Z,62080
2018-06-04T06:50:27.119Z,59776
2018-06-04T06:51:28.516Z,47584
2018-06-04T06:52:29.888Z,36448
2018-06-04T06:53:31.286Z,36672
2018-06-04T06:54:32.667Z,53760
2018-06-04T06:55:34.049Z,51744
2018-06-04T06:56:35.421Z,46880
2018-06-04T06:57:36.817Z,37088
2018-06-04T06:58:38.195Z,38144
2018-06-04T06:59:39.590Z,48800
2018-06-04T07:00:40.979Z,45248
2018-06-04T07:01:42.352Z,42976
2018-06-04T07:02:43.736Z,42528
2018-06-04T07:03:45.108Z,44256
2018-06-04T07:04:46.488Z,46208
2018-06-04T07:05:47.875Z,46720
2018-06-04T07:06:49.246Z,46624
2018-06-04T07:07:50.621Z,45248
2018-06-04T07:08:52.010Z,44576
2018-06-04T07:09:53.403Z,43968
2018-06-04T07:10:54.785Z,43840
2018-06-04T07:11:56.173Z,43808
2018-06-04T07:12:57.557Z,45024
2018-06-04T07:13:58.937Z,46496
2018-06-04T07:15:00.304Z,48352
2018-06-04T07:16:02.417Z,49376
2018-06-04T07:17:03.811Z,50016
2018-06-04T07:18:05.214Z,52992
2018-06-04T07:19:06.606Z,54720
2018-06-04T07:20:08.002Z,55264
2018-06-04T07:21:09.378Z,56864
2018-06-04T07:22:10.758Z,65696
2018-06-04T07:23:12.137Z,74720
2018-06-04T07:24:13.540Z,72224
2018-06-04T07:25:14.928Z,64192
2018-06-04T07:26:16.306Z,60512
2018-06-04T07:27:17.685Z,62624
2018-06-04T07:28:19.788Z,64576
2018-06-04T07:29:21.165Z,69152
2018-06-04T07:30:22.550Z,78400
2018-06-04T07:31:23.935Z,75616
2018-06-04T07:32:25.314Z,67040
2018-06-04T07:33:26.706Z,59776
2018-06-04T07:34:28.087Z,51968
2018-06-04T07:35:29.494Z,45888
2018-06-04T07:36:30.856Z,44576
2018-06-04T07:37:32.279Z,42656
2018-06-04T07:38:33.658Z,40224
2018-06-04T07:39:35.048Z,39328
2018-06-04T07:40:36.432Z,38656
2018-06-04T07:41:37.814Z,38240
2018-06-04T07:42:39.199Z,38208
2018-06-04T07:43:40.594Z,38400
2018-06-04T07:44:41.985Z,38464
2018-06-04T07:45:43.369Z,38560
2018-06-04T07:46:44.744Z,38720
2018-06-04T07:47:46.139Z,38848
2018-06-04T07:48:47.528Z,39040
2018-06-04T07:49:48.919Z,39136
2018-06-04T07:50:50.300Z,39200
2018-06-04T07:51:51.674Z,39584
2018-06-04T07:52:53.060Z,39776
2018-06-04T07:53:54.680Z,40064
2018-06-04T07:54:56.067Z,40064
2018-06-04T07:55:57.447Z,40256
2018-06-04T07:56:58.837Z,40320
2018-06-04T07:58:00.217Z,40512
2018-06-04T07:59:01.652Z,40672
2018-06-04T08:00:03.054Z,40832
2018-06-04T08:01:04.432Z,40832
2018-06-04T08:02:05.830Z,41056
2018-06-04T08:03:07.259Z,41280
2018-06-04T08:04:08.650Z,41184
2018-06-04T08:05:10.064Z,41216
2018-06-04T08:06:11.452Z,41440
2018-06-04T08:07:12.840Z,41536
2018-06-04T08:08:14.247Z,41856
2018-06-04T08:09:15.624Z,41920
2018-06-04T08:10:17.093Z,41664
2018-06-04T08:11:18.439Z,41632
2018-06-04T08:12:19.852Z,41568
2018-06-04T08:13:21.281Z,41440
2018-06-04T08:14:22.668Z,41632
2018-06-04T08:15:24.048Z,41536
2018-06-04T08:16:25.454Z,41440
2018-06-04T08:17:26.838Z,41664
2018-06-04T08:18:28.218Z,41856
2018-06-04T08:19:29.610Z,41792
2018-06-04T08:20:31.001Z,41888
2018-06-04T08:21:32.430Z,41696
2018-06-04T08:22:33.894Z,42304
2018-06-04T08:23:35.292Z,46464
2018-06-04T08:24:36.683Z,67456
2018-06-04T08:25:38.077Z,96992
2018-06-04T08:26:39.465Z,109504
2018-06-04T08:27:40.863Z,108384
2018-06-04T08:28:42.251Z,106784
2018-06-04T08:29:43.634Z,104800
2018-06-04T08:30:45.035Z,105344
2018-06-04T08:31:46.427Z,105504
2018-06-04T08:32:47.809Z,105344
2018-06-04T08:33:49.195Z,105664
2018-06-04T08:34:50.587Z,106592
2018-06-04T08:35:51.996Z,103968
2018-06-04T08:36:53.372Z,99552
2018-06-04T08:37:54.770Z,98336
2018-06-04T08:38:56.153Z,100256
2018-06-04T08:39:57.550Z,99040
2018-06-04T08:40:58.951Z,98240
2018-06-04T08:42:00.364Z,99584
2018-06-04T08:43:01.817Z,100512
2018-06-04T08:44:03.213Z,101568
2018-06-04T08:45:04.604Z,102944
2018-06-04T08:46:05.990Z,105152
2018-06-04T08:47:07.390Z,105952
2018-06-04T08:48:08.783Z,104800
2018-06-04T08:49:10.185Z,105120
2018-06-04T08:50:11.593Z,107136
2018-06-04T08:51:12.995Z,106816
2018-06-04T08:52:14.388Z,106336
2018-06-04T08:53:15.771Z,107360
2018-06-04T08:54:17.174Z,108416
2018-06-04T08:55:18.569Z,105696
2018-06-04T08:56:19.988Z,107232
2018-06-04T08:57:21.361Z,109152
2018-06-04T08:58:22.746Z,108832
2018-06-04T08:59:24.133Z,107424
2018-06-04T09:00:25.520Z,106752
2018-06-04T09:01:26.921Z,104672
2018-06-04T09:02:28.312Z,105056
2018-06-04T09:03:29.704Z,105952
2018-06-04T09:04:31.092Z,104992
2018-06-04T09:05:32.484Z,104320
2018-06-04T09:06:34.008Z,105632
2018-06-04T09:07:35.392Z,106656
2018-06-04T09:08:36.780Z,105696
2018-06-04T09:09:38.172Z,102496
2018-06-04T09:10:39.566Z,102080
2018-06-04T09:11:40.948Z,102144
2018-06-04T09:12:42.348Z,104320
2018-06-04T09:13:43.738Z,103168
2018-06-04T09:14:45.124Z,100576
2018-06-04T09:15:46.626Z,97184
2018-06-04T09:16:47.881Z,96928
2018-06-04T09:17:49.265Z,99264
2018-06-04T09:18:50.662Z,101056
2018-06-04T09:19:52.046Z,101184
2018-06-04T09:20:53.439Z,100288
2018-06-04T09:21:54.819Z,94848
2018-06-04T09:22:56.207Z,95264
2018-06-04T09:23:57.599Z,93760
2018-06-04T09:24:58.988Z,92096
2018-06-04T09:26:00.377Z,89120
2018-06-04T09:27:01.796Z,89056
2018-06-04T09:28:03.183Z,93120
2018-06-04T09:29:04.596Z,95456
2018-06-04T09:30:05.997Z,98880
2018-06-04T09:31:07.388Z,99840
2018-06-04T09:32:08.777Z,99680
2018-06-04T09:33:10.169Z,99488
2018-06-04T09:34:11.556Z,97056
2018-06-04T09:35:12.944Z,93280
2018-06-04T09:36:14.339Z,88128
2018-06-04T09:37:15.729Z,87712
2018-06-04T09:38:17.130Z,91584
2018-06-04T09:39:18.520Z,92000
2018-06-04T09:40:19.909Z,93408
2018-06-04T09:41:21.303Z,94496
2018-06-04T09:42:22.689Z,97728
2018-06-04T09:43:24.089Z,98208
2018-06-04T09:44:25.485Z,100800
2018-06-04T09:45:26.865Z,99808
2018-06-04T09:46:28.265Z,100960
2018-06-04T09:47:29.709Z,101216
2018-06-04T09:48:30.998Z,102144
2018-06-04T09:49:32.418Z,100128
2018-06-04T09:50:33.814Z,99360
2018-06-04T09:51:35.207Z,100032
2018-06-04T09:52:36.592Z,100640
2018-06-04T09:53:37.982Z,101056
2018-06-04T09:54:39.376Z,101440
2018-06-04T09:55:40.765Z,102176
2018-06-04T09:56:42.154Z,97248
2018-06-04T09:57:43.557Z,96320
2018-06-04T09:58:44.986Z,102208
2018-06-04T09:59:46.394Z,105408
2018-06-04T10:00:47.848Z,108672
2018-06-04T10:01:49.188Z,110976
2018-06-04T10:02:50.587Z,113216
2018-06-04T10:03:51.981Z,112256
2018-06-04T10:04:53.361Z,95264
2018-06-04T10:05:54.760Z,98560
2018-06-04T10:06:56.169Z,100448
2018-06-04T10:07:57.548Z,102048
2018-06-04T10:08:58.943Z,107680
2018-06-04T10:10:00.334Z,110720
2018-06-04T10:11:01.800Z,113344
2018-06-04T10:12:03.222Z,110944
2018-06-04T10:13:04.627Z,114240
2018-06-04T10:14:06.019Z,118592
2018-06-04T10:15:07.418Z,119808
2018-06-04T10:16:08.818Z,116992
2018-06-04T10:17:10.203Z,119744
2018-06-04T10:18:11.588Z,121600
2018-06-04T10:19:12.978Z,122976
2018-06-04T10:20:14.378Z,122208
2018-06-04T10:21:15.768Z,119776
2018-06-04T10:22:17.158Z,121568
2018-06-04T10:23:18.551Z,122464
2018-06-04T10:24:19.932Z,103584
2018-06-04T10:25:21.339Z,98496
2018-06-04T10:26:22.732Z,36672
2018-06-04T10:27:24.120Z,34304
2018-06-04T10:28:25.510Z,34752
2018-06-04T10:29:26.895Z,38272
2018-06-04T10:30:28.293Z,114112
2018-06-04T10:31:29.680Z,123968
2018-06-04T10:32:31.066Z,108704
2018-06-04T10:33:32.493Z,123072
2018-06-04T10:34:33.878Z,42752
2018-06-04T10:35:35.368Z,33504
2018-06-04T10:36:36.758Z,29056
2018-06-04T10:37:38.149Z,26816
2018-06-04T10:38:39.535Z,25952
2018-06-04T10:39:40.925Z,25504
2018-06-04T10:40:42.301Z,23808
2018-06-04T10:41:43.694Z,22848
2018-06-04T10:42:45.075Z,22848
2018-06-04T10:43:46.455Z,24192
2018-06-04T10:44:47.844Z,26176
2018-06-04T10:45:49.220Z,27712
2018-06-04T10:46:50.603Z,30816
2018-06-04T10:47:52.022Z,124128
2018-06-04T10:48:53.415Z,124544
2018-06-04T10:49:54.809Z,123840
2018-06-04T10:50:56.189Z,125824
2018-06-04T10:51:57.573Z,124768
2018-06-04T10:52:58.979Z,123584
2018-06-04T10:54:00.358Z,123264
2018-06-04T10:55:01.769Z,128000
2018-06-04T10:56:03.159Z,129792
2018-06-04T10:57:04.549Z,129664
2018-06-04T10:58:05.934Z,135840
2018-06-04T10:59:07.315Z,137056
2018-06-04T11:00:08.702Z,88160
2018-06-04T11:01:10.080Z,47680
2018-06-04T11:02:11.458Z,43264
2018-06-04T11:03:12.848Z,39776
2018-06-04T11:04:14.241Z,40096
2018-06-04T11:05:15.619Z,76960
2018-06-04T11:06:17.014Z,42016
2018-06-04T11:07:18.414Z,47424
2018-06-04T11:08:19.804Z,96224
2018-06-04T11:09:21.192Z,130048
2018-06-04T11:10:22.579Z,42112
2018-06-04T11:11:23.971Z,39008
2018-06-04T11:12:25.361Z,36512
2018-06-04T11:13:26.743Z,32800
2018-06-04T11:14:28.140Z,29856
2018-06-04T11:15:29.512Z,28032
2018-06-04T11:16:30.890Z,27872
2018-06-04T11:17:32.333Z,29152
2018-06-04T11:18:33.710Z,30848
2018-06-04T11:19:35.097Z,32896
2018-06-04T11:20:36.473Z,37152
2018-06-04T11:21:37.855Z,60192
2018-06-04T11:22:39.250Z,130592
2018-06-04T11:23:40.626Z,94624
2018-06-04T11:24:42.016Z,52512
2018-06-04T11:25:43.456Z,70592
2018-06-04T11:26:44.783Z,126688
2018-06-04T11:27:46.179Z,127392
2018-06-04T11:28:47.566Z,125504
2018-06-04T11:29:48.959Z,125920
2018-06-04T11:30:50.346Z,127680
2018-06-04T11:31:51.727Z,124096
2018-06-04T11:32:53.114Z,129376
2018-06-04T11:33:54.507Z,125120
2018-06-04T11:34:55.892Z,127936
2018-06-04T11:35:57.295Z,125504
2018-06-04T11:36:58.696Z,123168
2018-06-04T11:38:00.090Z,122432
2018-06-04T11:39:01.520Z,123808
2018-06-04T11:40:02.923Z,126976
2018-06-04T11:41:04.315Z,127296
2018-06-04T11:42:05.702Z,128128
2018-06-04T11:43:07.106Z,125760
2018-06-04T11:44:08.473Z,127488
2018-06-04T11:45:09.870Z,123808
2018-06-04T11:46:11.275Z,128064
2018-06-04T11:47:12.691Z,116032
2018-06-04T11:48:14.126Z,133152
2018-06-04T11:49:15.525Z,96768
2018-06-04T11:50:16.932Z,118752
2018-06-04T11:51:18.333Z,95104
2018-06-04T11:52:19.727Z,48416
2018-06-04T11:53:21.125Z,42048
2018-06-04T11:54:22.515Z,39872
2018-06-04T11:55:23.904Z,36704
2018-06-04T11:56:25.368Z,36864
2018-06-04T11:57:26.700Z,41632
2018-06-04T11:58:28.116Z,38976
2018-06-04T11:59:29.501Z,38976
2018-06-04T12:00:30.893Z,34272
2018-06-04T12:01:32.310Z,31616
2018-06-04T12:02:33.716Z,31040
2018-06-04T12:03:35.121Z,30688
2018-06-04T12:04:36.509Z,30240
2018-06-04T12:05:37.894Z,29568
2018-06-04T12:06:39.279Z,29472
2018-06-04T12:07:40.661Z,30336
2018-06-04T12:08:42.069Z,30048
2018-06-04T12:09:43.490Z,29920
2018-06-04T12:10:44.918Z,29664
2018-06-04T12:11:46.385Z,29056
2018-06-04T12:12:47.662Z,27392
2018-06-04T12:13:49.040Z,25440
2018-06-04T12:14:50.487Z,24480
2018-06-04T12:15:51.856Z,24768
2018-06-04T12:16:53.233Z,24768
2018-06-04T12:17:54.619Z,24640
2018-06-04T12:18:56.006Z,25280
2018-06-04T12:19:57.390Z,25600
2018-06-04T12:20:58.804Z,26176
2018-06-04T12:22:00.175Z,27904
2018-06-04T12:23:01.661Z,28448
2018-06-04T12:24:03.040Z,28192
2018-06-04T12:25:04.412Z,28960
2018-06-04T12:26:05.805Z,33376
2018-06-04T12:27:07.188Z,35936
2018-06-04T12:28:08.644Z,39328
2018-06-04T12:29:09.974Z,49888
2018-06-04T12:30:11.365Z,52512
2018-06-04T12:31:12.743Z,48544
2018-06-04T12:32:14.127Z,49632
2018-06-04T12:33:15.518Z,43008
2018-06-04T12:34:16.894Z,40800
2018-06-04T12:35:18.268Z,42144
2018-06-04T12:36:19.970Z,42752
2018-06-04T12:37:21.378Z,41248
2018-06-04T12:38:22.768Z,39136
2018-06-04T12:39:24.151Z,37472
2018-06-04T12:40:25.534Z,37728
2018-06-04T12:41:26.919Z,37856
2018-06-04T12:42:28.312Z,38240
2018-06-04T12:43:29.693Z,36352
2018-06-04T12:44:31.080Z,35904
2018-06-04T12:45:32.601Z,38656
2018-06-04T12:46:34.034Z,37408
2018-06-04T12:47:35.510Z,37120
2018-06-04T12:48:36.887Z,39104
2018-06-04T12:49:38.287Z,43904
2018-06-04T12:50:39.683Z,55648
2018-06-04T12:51:41.066Z,111808
2018-06-04T12:52:43.173Z,114560
2018-06-04T12:53:44.554Z,113600
2018-06-04T12:54:45.952Z,107328
2018-06-04T12:55:47.335Z,86720
2018-06-04T12:56:48.712Z,48800
2018-06-04T12:57:50.095Z,56064
2018-06-04T12:58:51.483Z,85024
2018-06-04T12:59:52.872Z,105984
2018-06-04T13:00:54.257Z,108352
2018-06-04T13:01:55.643Z,102720
2018-06-04T13:02:57.037Z,101088
2018-06-04T13:03:58.489Z,103072
2018-06-04T13:04:59.880Z,102848
2018-06-04T13:06:01.243Z,105792
2018-06-04T13:07:02.631Z,110400
2018-06-04T13:08:04.032Z,113152
2018-06-04T13:09:05.421Z,113088
2018-06-04T13:10:06.829Z,109984
2018-06-04T13:11:08.211Z,110048
2018-06-04T13:12:09.598Z,110752
2018-06-04T13:13:10.994Z,113120
2018-06-04T13:14:12.379Z,115328
2018-06-04T13:15:13.784Z,116928
2018-06-04T13:16:15.282Z,117664
2018-06-04T13:17:16.688Z,115936
2018-06-04T13:18:18.077Z,115360
2018-06-04T13:19:19.544Z,114720
2018-06-04T13:20:20.933Z,113216
2018-06-04T13:21:22.321Z,114688
2018-06-04T13:22:23.710Z,110400
2018-06-04T13:23:25.111Z,39808
2018-06-04T13:24:26.501Z,61376
2018-06-04T13:25:27.893Z,80640
2018-06-04T13:26:29.277Z,46432
2018-06-04T13:27:30.685Z,61696
2018-06-04T13:28:32.113Z,40736
2018-06-04T13:29:33.509Z,38176
2018-06-04T13:30:34.896Z,38112
2018-06-04T13:31:36.281Z,36832
2018-06-04T13:32:37.671Z,34560
2018-06-04T13:33:39.059Z,30112
2018-06-04T13:34:40.440Z,26048